sensor_id;sensor_type;location;lat;lon;timestamp;temperature;humidity
18581;DHT22;9420;50.876;7.012;2023-01-10T00:00:38;6.70;99.90
18581;DHT22;9420;50.876;7.012;2023-01-10T00:03:07;6.70;99.90
18581;DHT22;9420;50.876;7.012;2023-01-10T00:05:36;6.60;99.90
18581;DHT22;9420;50.876;7.012;2023-01-10T00:08:05;6.60;99.90
18581;DHT22;9420;50.876;7.012;2023-01-10T00:10:34;6.60;99.90
18581;DHT22;9420;50.876;7.012;2023-01-10T00:13:01;6.70;99.90
18581;DHT22;9420;50.876;7.012;2023-01-10T00:15:47;6.60;99.90
18581;DHT22;9420;50.876;7.012;2023-01-10T00:18:15;6.60;99.90
18581;DHT22;9420;50.876;7.012;2023-01-10T00:20:42;6.60;99.90
18581;DHT22;9420;50.876;7.012;2023-01-10T00:23:10;6.70;99.90
18581;DHT22;9420;50.876;7.012;2023-01-10T00:25:37;6.70;99.90
18581;DHT22;9420;50.876;7.012;2023-01-10T00:28:05;6.70;99.90
18581;DHT22;9420;50.876;7.012;2023-01-10T00:30:41;6.70;99.90
18581;DHT22;9420;50.876;7.012;2023-01-10T00:33:10;6.70;99.90
18581;DHT22;9420;50.876;7.012;2023-01-10T00:35:44;6.70;99.90
18581;DHT22;9420;50.876;7.012;2023-01-10T00:38:11;6.70;99.90
18581;DHT22;9420;50.876;7.012;2023-01-10T00:40:38;6.70;99.90
18581;DHT22;9420;50.876;7.012;2023-01-10T00:43:07;6.60;99.90
18581;DHT22;9420;50.876;7.012;2023-01-10T00:45:52;6.60;99.90
18581;DHT22;9420;50.876;7.012;2023-01-10T00:48:20;6.60;99.90
18581;DHT22;9420;50.876;7.012;2023-01-10T00:50:47;6.50;99.90
18581;DHT22;9420;50.876;7.012;2023-01-10T00:53:14;6.60;99.90
18581;DHT22;9420;50.876;7.012;2023-01-10T00:55:43;6.60;99.90
18581;DHT22;9420;50.876;7.012;2023-01-10T00:58:11;6.60;99.90
18581;DHT22;9420;50.876;7.012;2023-01-10T01:00:39;6.60;99.90
18581;DHT22;9420;50.876;7.012;2023-01-10T01:03:06;6.70;99.90
18581;DHT22;9420;50.876;7.012;2023-01-10T01:05:40;6.70;99.90
18581;DHT22;9420;50.876;7.012;2023-01-10T01:08:08;6.70;99.90
18581;DHT22;9420;50.876;7.012;2023-01-10T01:10:35;6.70;99.90
18581;DHT22;9420;50.876;7.012;2023-01-10T01:13:06;6.80;99.90
18581;DHT22;9420;50.876;7.012;2023-01-10T01:15:35;6.70;99.90
18581;DHT22;9420;50.876;7.012;2023-01-10T01:18:03;6.80;99.90
18581;DHT22;9420;50.876;7.012;2023-01-10T01:20:31;6.80;99.90
18581;DHT22;9420;50.876;7.012;2023-01-10T01:23:00;6.70;99.90
18581;DHT22;9420;50.876;7.012;2023-01-10T01:25:27;6.70;99.90
18581;DHT22;9420;50.876;7.012;2023-01-10T01:27:54;6.70;99.90
18581;DHT22;9420;50.876;7.012;2023-01-10T01:30:21;6.70;99.90
18581;DHT22;9420;50.876;7.012;2023-01-10T01:32:48;6.70;99.90
18581;DHT22;9420;50.876;7.012;2023-01-10T01:35:16;6.80;99.90
18581;DHT22;9420;50.876;7.012;2023-01-10T01:37:43;6.80;99.90
18581;DHT22;9420;50.876;7.012;2023-01-10T01:40:14;6.80;99.90
18581;DHT22;9420;50.876;7.012;2023-01-10T01:42:44;6.70;99.90
18581;DHT22;9420;50.876;7.012;2023-01-10T01:45:32;6.70;99.90
18581;DHT22;9420;50.876;7.012;2023-01-10T01:48:10;6.70;99.90
18581;DHT22;9420;50.876;7.012;2023-01-10T01:50:56;6.60;99.90
18581;DHT22;9420;50.876;7.012;2023-01-10T01:53:32;6.60;99.90
18581;DHT22;9420;50.876;7.012;2023-01-10T01:56:07;6.60;99.90
18581;DHT22;9420;50.876;7.012;2023-01-10T01:58:42;6.60;99.90
18581;DHT22;9420;50.876;7.012;2023-01-10T02:01:14;6.60;99.90
18581;DHT22;9420;50.876;7.012;2023-01-10T02:03:46;6.60;99.90
18581;DHT22;9420;50.876;7.012;2023-01-10T02:06:17;6.60;99.90
18581;DHT22;9420;50.876;7.012;2023-01-10T02:08:53;6.60;99.90
18581;DHT22;9420;50.876;7.012;2023-01-10T02:11:29;6.50;99.90
18581;DHT22;9420;50.876;7.012;2023-01-10T02:13:57;6.50;99.90
18581;DHT22;9420;50.876;7.012;2023-01-10T02:16:25;6.50;99.90
18581;DHT22;9420;50.876;7.012;2023-01-10T02:18:52;6.60;99.90
18581;DHT22;9420;50.876;7.012;2023-01-10T02:21:41;6.50;99.90
18581;DHT22;9420;50.876;7.012;2023-01-10T02:25:01;6.50;99.90
18581;DHT22;9420;50.876;7.012;2023-01-10T02:28:07;6.50;99.90
18581;DHT22;9420;50.876;7.012;2023-01-10T02:31:13;6.60;99.90
18581;DHT22;9420;50.876;7.012;2023-01-10T02:33:56;6.50;99.90
18581;DHT22;9420;50.876;7.012;2023-01-10T02:36:39;6.50;99.90
18581;DHT22;9420;50.876;7.012;2023-01-10T02:39:20;6.50;99.90
18581;DHT22;9420;50.876;7.012;2023-01-10T02:41:56;6.40;99.90
18581;DHT22;9420;50.876;7.012;2023-01-10T02:44:30;6.40;99.90
18581;DHT22;9420;50.876;7.012;2023-01-10T02:47:02;6.30;99.90
18581;DHT22;9420;50.876;7.012;2023-01-10T02:49:40;6.30;99.90
18581;DHT22;9420;50.876;7.012;2023-01-10T02:52:09;6.30;99.90
18581;DHT22;9420;50.876;7.012;2023-01-10T02:54:38;6.30;99.90
18581;DHT22;9420;50.876;7.012;2023-01-10T02:57:15;6.30;99.90
18581;DHT22;9420;50.876;7.012;2023-01-10T03:03:15;6.30;99.90
18581;DHT22;9420;50.876;7.012;2023-01-10T03:06:06;6.30;99.90
18581;DHT22;9420;50.876;7.012;2023-01-10T03:08:49;6.30;99.90
18581;DHT22;9420;50.876;7.012;2023-01-10T03:11:26;6.30;99.90
18581;DHT22;9420;50.876;7.012;2023-01-10T03:14:09;6.30;99.90
18581;DHT22;9420;50.876;7.012;2023-01-10T03:16:45;6.30;99.90
18581;DHT22;9420;50.876;7.012;2023-01-10T03:19:18;6.40;99.90
18581;DHT22;9420;50.876;7.012;2023-01-10T03:21:51;6.30;99.90
18581;DHT22;9420;50.876;7.012;2023-01-10T03:24:26;6.30;99.90
18581;DHT22;9420;50.876;7.012;2023-01-10T03:27:00;6.30;99.90
18581;DHT22;9420;50.876;7.012;2023-01-10T03:29:34;6.40;99.90
18581;DHT22;9420;50.876;7.012;2023-01-10T03:32:08;6.40;99.90
18581;DHT22;9420;50.876;7.012;2023-01-10T03:34:38;6.30;99.90
18581;DHT22;9420;50.876;7.012;2023-01-10T03:37:12;6.30;99.90
18581;DHT22;9420;50.876;7.012;2023-01-10T03:39:49;6.30;99.90
18581;DHT22;9420;50.876;7.012;2023-01-10T03:42:25;6.30;99.90
18581;DHT22;9420;50.876;7.012;2023-01-10T03:45:20;6.30;99.90
18581;DHT22;9420;50.876;7.012;2023-01-10T03:47:53;6.30;99.90
18581;DHT22;9420;50.876;7.012;2023-01-10T03:50:24;6.30;99.90
18581;DHT22;9420;50.876;7.012;2023-01-10T03:52:54;6.20;99.90
18581;DHT22;9420;50.876;7.012;2023-01-10T03:55:25;6.20;99.90
18581;DHT22;9420;50.876;7.012;2023-01-10T03:57:53;6.20;99.90
18581;DHT22;9420;50.876;7.012;2023-01-10T04:00:21;6.30;99.90
18581;DHT22;9420;50.876;7.012;2023-01-10T04:02:48;6.30;99.90
18581;DHT22;9420;50.876;7.012;2023-01-10T04:05:16;6.30;99.90
18581;DHT22;9420;50.876;7.012;2023-01-10T04:07:43;6.30;99.90
18581;DHT22;9420;50.876;7.012;2023-01-10T04:10:11;6.30;99.90
18581;DHT22;9420;50.876;7.012;2023-01-10T04:12:38;6.30;99.90
18581;DHT22;9420;50.876;7.012;2023-01-10T04:15:06;6.20;99.90
18581;DHT22;9420;50.876;7.012;2023-01-10T04:17:33;6.20;99.90
18581;DHT22;9420;50.876;7.012;2023-01-10T04:20:01;6.20;99.90
18581;DHT22;9420;50.876;7.012;2023-01-10T04:22:28;6.20;99.90
18581;DHT22;9420;50.876;7.012;2023-01-10T04:24:55;6.20;99.90
18581;DHT22;9420;50.876;7.012;2023-01-10T04:27:23;6.20;99.90
18581;DHT22;9420;50.876;7.012;2023-01-10T04:29:50;6.30;99.90
18581;DHT22;9420;50.876;7.012;2023-01-10T04:32:17;6.30;99.90
18581;DHT22;9420;50.876;7.012;2023-01-10T04:34:44;6.20;99.90
18581;DHT22;9420;50.876;7.012;2023-01-10T04:37:11;6.20;99.90
18581;DHT22;9420;50.876;7.012;2023-01-10T04:39:38;6.10;99.90
18581;DHT22;9420;50.876;7.012;2023-01-10T04:42:05;6.00;99.90
18581;DHT22;9420;50.876;7.012;2023-01-10T04:44:33;6.00;99.90
18581;DHT22;9420;50.876;7.012;2023-01-10T04:47:00;6.00;99.90
18581;DHT22;9420;50.876;7.012;2023-01-10T04:49:28;6.00;99.90
18581;DHT22;9420;50.876;7.012;2023-01-10T04:51:55;6.00;99.90
18581;DHT22;9420;50.876;7.012;2023-01-10T04:54:22;6.00;99.90
18581;DHT22;9420;50.876;7.012;2023-01-10T04:56:49;6.00;99.90
18581;DHT22;9420;50.876;7.012;2023-01-10T04:59:17;6.00;99.90
18581;DHT22;9420;50.876;7.012;2023-01-10T05:01:46;6.10;99.90
18581;DHT22;9420;50.876;7.012;2023-01-10T05:04:13;6.10;99.90
18581;DHT22;9420;50.876;7.012;2023-01-10T05:06:40;6.20;99.90
18581;DHT22;9420;50.876;7.012;2023-01-10T05:09:07;6.20;99.90
18581;DHT22;9420;50.876;7.012;2023-01-10T05:11:34;6.20;99.90
18581;DHT22;9420;50.876;7.012;2023-01-10T05:14:02;6.20;99.90
18581;DHT22;9420;50.876;7.012;2023-01-10T05:16:29;6.20;99.90
18581;DHT22;9420;50.876;7.012;2023-01-10T05:18:57;6.10;99.90
18581;DHT22;9420;50.876;7.012;2023-01-10T05:21:24;6.20;99.90
18581;DHT22;9420;50.876;7.012;2023-01-10T05:23:51;6.10;99.90
18581;DHT22;9420;50.876;7.012;2023-01-10T05:26:20;6.20;99.90
18581;DHT22;9420;50.876;7.012;2023-01-10T05:28:48;6.20;99.90
18581;DHT22;9420;50.876;7.012;2023-01-10T05:31:18;6.20;99.90
18581;DHT22;9420;50.876;7.012;2023-01-10T05:33:45;6.30;99.90
18581;DHT22;9420;50.876;7.012;2023-01-10T05:36:15;6.30;99.90
18581;DHT22;9420;50.876;7.012;2023-01-10T05:38:43;6.30;99.90
18581;DHT22;9420;50.876;7.012;2023-01-10T05:41:10;6.30;99.90
18581;DHT22;9420;50.876;7.012;2023-01-10T05:43:37;6.50;99.90
18581;DHT22;9420;50.876;7.012;2023-01-10T05:46:05;6.60;99.90
18581;DHT22;9420;50.876;7.012;2023-01-10T05:48:31;6.50;99.90
18581;DHT22;9420;50.876;7.012;2023-01-10T05:50:58;6.50;99.90
18581;DHT22;9420;50.876;7.012;2023-01-10T05:53:27;6.50;99.90
18581;DHT22;9420;50.876;7.012;2023-01-10T05:55:55;6.50;99.90
18581;DHT22;9420;50.876;7.012;2023-01-10T05:58:23;6.50;99.90
18581;DHT22;9420;50.876;7.012;2023-01-10T06:00:51;6.50;99.90
18581;DHT22;9420;50.876;7.012;2023-01-10T06:03:20;6.40;99.90
18581;DHT22;9420;50.876;7.012;2023-01-10T06:05:47;6.30;99.90
18581;DHT22;9420;50.876;7.012;2023-01-10T06:08:14;6.20;99.90
18581;DHT22;9420;50.876;7.012;2023-01-10T06:10:42;6.20;99.90
18581;DHT22;9420;50.876;7.012;2023-01-10T06:13:09;6.20;99.90
18581;DHT22;9420;50.876;7.012;2023-01-10T06:15:37;6.20;99.90
18581;DHT22;9420;50.876;7.012;2023-01-10T06:18:05;6.20;99.90
18581;DHT22;9420;50.876;7.012;2023-01-10T06:20:32;6.30;99.90
18581;DHT22;9420;50.876;7.012;2023-01-10T06:22:59;6.40;99.90
18581;DHT22;9420;50.876;7.012;2023-01-10T06:25:29;6.40;99.90
18581;DHT22;9420;50.876;7.012;2023-01-10T06:27:57;6.50;99.90
18581;DHT22;9420;50.876;7.012;2023-01-10T06:30:25;6.50;99.90
18581;DHT22;9420;50.876;7.012;2023-01-10T06:32:51;6.50;99.90
18581;DHT22;9420;50.876;7.012;2023-01-10T06:35:18;6.50;99.90
18581;DHT22;9420;50.876;7.012;2023-01-10T06:37:45;6.40;99.90
18581;DHT22;9420;50.876;7.012;2023-01-10T06:40:12;6.40;99.90
18581;DHT22;9420;50.876;7.012;2023-01-10T06:42:40;6.40;99.90
18581;DHT22;9420;50.876;7.012;2023-01-10T06:45:09;6.40;99.90
18581;DHT22;9420;50.876;7.012;2023-01-10T06:47:36;6.50;99.90
18581;DHT22;9420;50.876;7.012;2023-01-10T06:50:06;6.60;99.90
18581;DHT22;9420;50.876;7.012;2023-01-10T06:52:33;6.40;99.90
18581;DHT22;9420;50.876;7.012;2023-01-10T06:55:00;6.30;99.90
18581;DHT22;9420;50.876;7.012;2023-01-10T06:57:27;6.30;99.90
18581;DHT22;9420;50.876;7.012;2023-01-10T06:59:54;6.20;99.90
18581;DHT22;9420;50.876;7.012;2023-01-10T07:02:23;6.20;99.90
18581;DHT22;9420;50.876;7.012;2023-01-10T07:04:50;6.10;99.90
18581;DHT22;9420;50.876;7.012;2023-01-10T07:07:17;6.10;99.90
18581;DHT22;9420;50.876;7.012;2023-01-10T07:09:44;6.00;99.90
18581;DHT22;9420;50.876;7.012;2023-01-10T07:12:11;5.90;99.90
18581;DHT22;9420;50.876;7.012;2023-01-10T07:14:39;5.90;99.90
18581;DHT22;9420;50.876;7.012;2023-01-10T07:17:06;5.90;99.90
18581;DHT22;9420;50.876;7.012;2023-01-10T07:19:34;5.80;99.90
18581;DHT22;9420;50.876;7.012;2023-01-10T07:22:01;5.70;99.90
18581;DHT22;9420;50.876;7.012;2023-01-10T07:24:28;5.70;99.90
18581;DHT22;9420;50.876;7.012;2023-01-10T07:26:55;5.50;99.90
18581;DHT22;9420;50.876;7.012;2023-01-10T07:29:22;5.50;99.90
18581;DHT22;9420;50.876;7.012;2023-01-10T07:31:49;5.50;99.90
18581;DHT22;9420;50.876;7.012;2023-01-10T07:34:17;5.50;99.90
18581;DHT22;9420;50.876;7.012;2023-01-10T07:36:45;5.60;99.90
18581;DHT22;9420;50.876;7.012;2023-01-10T07:39:12;5.60;99.90
18581;DHT22;9420;50.876;7.012;2023-01-10T07:41:39;5.60;99.90
18581;DHT22;9420;50.876;7.012;2023-01-10T07:44:06;5.70;99.90
18581;DHT22;9420;50.876;7.012;2023-01-10T07:46:33;5.70;99.90
18581;DHT22;9420;50.876;7.012;2023-01-10T07:49:00;5.80;99.90
18581;DHT22;9420;50.876;7.012;2023-01-10T07:51:27;5.80;99.90
18581;DHT22;9420;50.876;7.012;2023-01-10T07:53:56;5.80;99.90
18581;DHT22;9420;50.876;7.012;2023-01-10T07:56:23;5.80;99.90
18581;DHT22;9420;50.876;7.012;2023-01-10T07:58:50;5.80;99.90
18581;DHT22;9420;50.876;7.012;2023-01-10T08:01:17;5.90;99.90
18581;DHT22;9420;50.876;7.012;2023-01-10T08:03:44;6.00;99.90
18581;DHT22;9420;50.876;7.012;2023-01-10T08:06:11;5.90;99.90
18581;DHT22;9420;50.876;7.012;2023-01-10T08:08:38;5.90;99.90
18581;DHT22;9420;50.876;7.012;2023-01-10T08:11:07;5.80;99.90
18581;DHT22;9420;50.876;7.012;2023-01-10T08:13:34;5.80;99.90
18581;DHT22;9420;50.876;7.012;2023-01-10T08:16:03;5.80;99.90
18581;DHT22;9420;50.876;7.012;2023-01-10T08:18:33;5.70;99.90
18581;DHT22;9420;50.876;7.012;2023-01-10T08:21:00;5.60;99.90
18581;DHT22;9420;50.876;7.012;2023-01-10T08:23:28;5.60;99.90
18581;DHT22;9420;50.876;7.012;2023-01-10T08:25:57;5.60;99.90
18581;DHT22;9420;50.876;7.012;2023-01-10T08:28:25;5.60;99.90
18581;DHT22;9420;50.876;7.012;2023-01-10T08:30:52;5.50;99.90
18581;DHT22;9420;50.876;7.012;2023-01-10T08:33:20;5.50;99.90
18581;DHT22;9420;50.876;7.012;2023-01-10T08:35:48;5.50;99.90
18581;DHT22;9420;50.876;7.012;2023-01-10T08:38:16;5.50;99.90
18581;DHT22;9420;50.876;7.012;2023-01-10T08:40:43;5.50;99.90
18581;DHT22;9420;50.876;7.012;2023-01-10T08:43:11;5.50;99.90
18581;DHT22;9420;50.876;7.012;2023-01-10T08:45:40;5.40;99.90
18581;DHT22;9420;50.876;7.012;2023-01-10T08:48:08;5.40;99.90
18581;DHT22;9420;50.876;7.012;2023-01-10T08:50:36;5.40;99.90
18581;DHT22;9420;50.876;7.012;2023-01-10T08:53:03;5.40;99.90
18581;DHT22;9420;50.876;7.012;2023-01-10T08:55:30;5.50;99.90
18581;DHT22;9420;50.876;7.012;2023-01-10T08:58:00;5.60;99.90
18581;DHT22;9420;50.876;7.012;2023-01-10T09:00:27;5.80;99.90
18581;DHT22;9420;50.876;7.012;2023-01-10T09:02:56;6.00;99.90
18581;DHT22;9420;50.876;7.012;2023-01-10T09:05:23;6.20;99.90
18581;DHT22;9420;50.876;7.012;2023-01-10T09:07:51;6.30;99.90
18581;DHT22;9420;50.876;7.012;2023-01-10T09:10:18;6.30;99.90
18581;DHT22;9420;50.876;7.012;2023-01-10T09:12:45;6.30;99.90
18581;DHT22;9420;50.876;7.012;2023-01-10T09:15:23;6.30;99.90
18581;DHT22;9420;50.876;7.012;2023-01-10T09:17:53;6.30;99.90
18581;DHT22;9420;50.876;7.012;2023-01-10T09:20:22;6.40;99.90
18581;DHT22;9420;50.876;7.012;2023-01-10T09:22:50;6.40;99.90
18581;DHT22;9420;50.876;7.012;2023-01-10T09:25:17;6.50;99.90
18581;DHT22;9420;50.876;7.012;2023-01-10T09:27:44;6.50;99.90
18581;DHT22;9420;50.876;7.012;2023-01-10T09:30:12;6.60;99.90
18581;DHT22;9420;50.876;7.012;2023-01-10T09:32:40;6.60;99.90
18581;DHT22;9420;50.876;7.012;2023-01-10T09:35:07;6.70;99.90
18581;DHT22;9420;50.876;7.012;2023-01-10T09:37:35;6.70;99.90
18581;DHT22;9420;50.876;7.012;2023-01-10T09:40:04;6.70;99.90
18581;DHT22;9420;50.876;7.012;2023-01-10T09:42:54;6.80;99.90
18581;DHT22;9420;50.876;7.012;2023-01-10T09:49:43;7.00;99.90
18581;DHT22;9420;50.876;7.012;2023-01-10T09:52:22;7.10;99.90
18581;DHT22;9420;50.876;7.012;2023-01-10T09:54:56;7.10;99.90
18581;DHT22;9420;50.876;7.012;2023-01-10T09:57:26;7.20;99.90
18581;DHT22;9420;50.876;7.012;2023-01-10T09:59:55;7.20;99.90
18581;DHT22;9420;50.876;7.012;2023-01-10T10:08:39;7.30;99.90
18581;DHT22;9420;50.876;7.012;2023-01-10T10:11:29;7.30;99.90
18581;DHT22;9420;50.876;7.012;2023-01-10T10:14:13;7.40;99.90
18581;DHT22;9420;50.876;7.012;2023-01-10T10:17:01;7.40;99.90
18581;DHT22;9420;50.876;7.012;2023-01-10T10:19:54;7.50;99.90
18581;DHT22;9420;50.876;7.012;2023-01-10T10:22:39;7.60;99.90
18581;DHT22;9420;50.876;7.012;2023-01-10T10:25:28;7.70;99.90
18581;DHT22;9420;50.876;7.012;2023-01-10T10:28:30;7.80;99.90
18581;DHT22;9420;50.876;7.012;2023-01-10T10:31:32;7.90;99.90
18581;DHT22;9420;50.876;7.012;2023-01-10T10:34:14;8.00;99.90
18581;DHT22;9420;50.876;7.012;2023-01-10T10:36:49;8.00;99.90
18581;DHT22;9420;50.876;7.012;2023-01-10T10:39:23;8.10;99.90
18581;DHT22;9420;50.876;7.012;2023-01-10T10:41:58;8.20;99.90
18581;DHT22;9420;50.876;7.012;2023-01-10T10:44:33;8.10;99.90
18581;DHT22;9420;50.876;7.012;2023-01-10T10:47:12;8.20;99.90
18581;DHT22;9420;50.876;7.012;2023-01-10T10:49:44;8.20;99.90
18581;DHT22;9420;50.876;7.012;2023-01-10T10:52:21;8.30;99.90
18581;DHT22;9420;50.876;7.012;2023-01-10T10:54:51;8.40;99.90
18581;DHT22;9420;50.876;7.012;2023-01-10T10:57:21;8.50;99.90
18581;DHT22;9420;50.876;7.012;2023-01-10T10:59:53;8.70;99.90
18581;DHT22;9420;50.876;7.012;2023-01-10T11:02:25;8.70;99.90
18581;DHT22;9420;50.876;7.012;2023-01-10T11:04:57;8.80;99.90
18581;DHT22;9420;50.876;7.012;2023-01-10T11:07:31;8.70;99.90
18581;DHT22;9420;50.876;7.012;2023-01-10T11:10:02;9.00;99.90
18581;DHT22;9420;50.876;7.012;2023-01-10T11:12:45;9.00;99.90
18581;DHT22;9420;50.876;7.012;2023-01-10T11:15:35;8.80;99.90
18581;DHT22;9420;50.876;7.012;2023-01-10T11:18:06;8.80;99.90
18581;DHT22;9420;50.876;7.012;2023-01-10T11:20:46;8.80;99.90
18581;DHT22;9420;50.876;7.012;2023-01-10T11:23:24;8.80;99.90
18581;DHT22;9420;50.876;7.012;2023-01-10T11:26:01;8.80;99.90
18581;DHT22;9420;50.876;7.012;2023-01-10T11:28:30;8.80;99.90
18581;DHT22;9420;50.876;7.012;2023-01-10T11:31:01;8.70;99.90
18581;DHT22;9420;50.876;7.012;2023-01-10T11:33:31;8.60;99.90
18581;DHT22;9420;50.876;7.012;2023-01-10T11:36:02;8.60;99.90
18581;DHT22;9420;50.876;7.012;2023-01-10T11:38:31;8.70;99.90
18581;DHT22;9420;50.876;7.012;2023-01-10T11:41:02;8.70;99.90
18581;DHT22;9420;50.876;7.012;2023-01-10T11:43:32;8.60;99.90
18581;DHT22;9420;50.876;7.012;2023-01-10T11:46:04;8.60;99.90
18581;DHT22;9420;50.876;7.012;2023-01-10T11:48:43;8.60;99.90
18581;DHT22;9420;50.876;7.012;2023-01-10T11:51:19;8.70;99.90
18581;DHT22;9420;50.876;7.012;2023-01-10T11:53:56;8.70;99.90
18581;DHT22;9420;50.876;7.012;2023-01-10T11:56:29;8.80;99.90
18581;DHT22;9420;50.876;7.012;2023-01-10T11:59:07;8.90;99.90
18581;DHT22;9420;50.876;7.012;2023-01-10T12:01:41;9.00;99.90
18581;DHT22;9420;50.876;7.012;2023-01-10T12:04:14;8.80;99.90
18581;DHT22;9420;50.876;7.012;2023-01-10T12:06:44;8.70;99.90
18581;DHT22;9420;50.876;7.012;2023-01-10T12:09:36;8.90;99.90
18581;DHT22;9420;50.876;7.012;2023-01-10T12:12:16;9.00;99.90
18581;DHT22;9420;50.876;7.012;2023-01-10T12:14:46;8.80;99.90
18581;DHT22;9420;50.876;7.012;2023-01-10T12:17:22;8.80;99.90
18581;DHT22;9420;50.876;7.012;2023-01-10T12:19:51;8.80;99.90
18581;DHT22;9420;50.876;7.012;2023-01-10T12:22:26;8.80;99.90
18581;DHT22;9420;50.876;7.012;2023-01-10T12:24:58;8.70;99.90
18581;DHT22;9420;50.876;7.012;2023-01-10T12:27:28;8.60;99.90
18581;DHT22;9420;50.876;7.012;2023-01-10T12:30:01;8.60;99.90
18581;DHT22;9420;50.876;7.012;2023-01-10T12:32:38;8.50;99.90
18581;DHT22;9420;50.876;7.012;2023-01-10T12:35:14;8.50;99.90
18581;DHT22;9420;50.876;7.012;2023-01-10T12:37:47;8.50;99.90
18581;DHT22;9420;50.876;7.012;2023-01-10T12:40:33;8.40;99.90
18581;DHT22;9420;50.876;7.012;2023-01-10T12:43:13;8.50;99.90
18581;DHT22;9420;50.876;7.012;2023-01-10T12:46:06;8.50;99.90
18581;DHT22;9420;50.876;7.012;2023-01-10T12:48:44;8.50;99.90
18581;DHT22;9420;50.876;7.012;2023-01-10T12:51:19;8.50;99.90
18581;DHT22;9420;50.876;7.012;2023-01-10T12:53:54;8.40;99.90
18581;DHT22;9420;50.876;7.012;2023-01-10T12:56:26;8.40;99.90
18581;DHT22;9420;50.876;7.012;2023-01-10T12:58:59;8.40;99.90
18581;DHT22;9420;50.876;7.012;2023-01-10T13:01:31;8.40;99.90
18581;DHT22;9420;50.876;7.012;2023-01-10T13:04:04;8.40;99.90
18581;DHT22;9420;50.876;7.012;2023-01-10T13:06:38;8.30;99.90
18581;DHT22;9420;50.876;7.012;2023-01-10T13:09:14;8.30;99.90
18581;DHT22;9420;50.876;7.012;2023-01-10T13:11:49;8.30;99.90
18581;DHT22;9420;50.876;7.012;2023-01-10T13:14:28;8.30;99.90
18581;DHT22;9420;50.876;7.012;2023-01-10T13:17:08;8.30;99.90
18581;DHT22;9420;50.876;7.012;2023-01-10T13:20:23;8.30;99.90
18581;DHT22;9420;50.876;7.012;2023-01-10T13:22:54;8.40;99.90
18581;DHT22;9420;50.876;7.012;2023-01-10T13:25:24;8.30;99.90
18581;DHT22;9420;50.876;7.012;2023-01-10T13:28:04;8.30;99.90
18581;DHT22;9420;50.876;7.012;2023-01-10T13:30:34;8.20;99.90
18581;DHT22;9420;50.876;7.012;2023-01-10T13:33:06;8.30;99.90
18581;DHT22;9420;50.876;7.012;2023-01-10T13:35:47;8.20;99.90
18581;DHT22;9420;50.876;7.012;2023-01-10T13:38:18;8.20;99.90
18581;DHT22;9420;50.876;7.012;2023-01-10T13:41:00;8.10;99.90
18581;DHT22;9420;50.876;7.012;2023-01-10T13:43:37;8.10;99.90
18581;DHT22;9420;50.876;7.012;2023-01-10T13:46:50;8.10;99.90
18581;DHT22;9420;50.876;7.012;2023-01-10T13:49:25;8.00;99.90
18581;DHT22;9420;50.876;7.012;2023-01-10T13:52:38;8.00;99.90
18581;DHT22;9420;50.876;7.012;2023-01-10T13:55:30;8.00;99.90
18581;DHT22;9420;50.876;7.012;2023-01-10T13:58:02;8.00;99.90
18581;DHT22;9420;50.876;7.012;2023-01-10T14:01:22;7.90;99.90
18581;DHT22;9420;50.876;7.012;2023-01-10T14:04:17;7.90;99.90
18581;DHT22;9420;50.876;7.012;2023-01-10T14:06:53;7.90;99.90
18581;DHT22;9420;50.876;7.012;2023-01-10T14:09:44;7.90;99.90
18581;DHT22;9420;50.876;7.012;2023-01-10T14:12:21;7.90;99.90
18581;DHT22;9420;50.876;7.012;2023-01-10T14:14:55;7.90;99.90
18581;DHT22;9420;50.876;7.012;2023-01-10T14:17:27;7.90;99.90
18581;DHT22;9420;50.876;7.012;2023-01-10T14:23:05;7.80;99.90
18581;DHT22;9420;50.876;7.012;2023-01-10T14:25:45;7.80;99.90
18581;DHT22;9420;50.876;7.012;2023-01-10T14:28:25;7.80;99.90
18581;DHT22;9420;50.876;7.012;2023-01-10T14:31:00;7.80;99.90
18581;DHT22;9420;50.876;7.012;2023-01-10T14:33:31;7.80;99.90
18581;DHT22;9420;50.876;7.012;2023-01-10T14:36:03;7.70;99.90
18581;DHT22;9420;50.876;7.012;2023-01-10T14:38:37;7.70;99.90
18581;DHT22;9420;50.876;7.012;2023-01-10T14:41:11;7.70;99.90
18581;DHT22;9420;50.876;7.012;2023-01-10T14:43:47;7.70;99.90
18581;DHT22;9420;50.876;7.012;2023-01-10T14:46:23;7.70;99.90
18581;DHT22;9420;50.876;7.012;2023-01-10T14:48:55;7.60;99.90
18581;DHT22;9420;50.876;7.012;2023-01-10T14:51:26;7.60;99.90
18581;DHT22;9420;50.876;7.012;2023-01-10T14:53:55;7.60;99.90
18581;DHT22;9420;50.876;7.012;2023-01-10T14:56:27;7.60;99.90
18581;DHT22;9420;50.876;7.012;2023-01-10T14:58:56;7.60;99.90
18581;DHT22;9420;50.876;7.012;2023-01-10T15:01:25;7.50;99.90
18581;DHT22;9420;50.876;7.012;2023-01-10T15:03:55;7.50;99.90
18581;DHT22;9420;50.876;7.012;2023-01-10T15:06:23;7.50;99.90
18581;DHT22;9420;50.876;7.012;2023-01-10T15:08:58;7.50;99.90
18581;DHT22;9420;50.876;7.012;2023-01-10T15:11:30;7.50;99.90
18581;DHT22;9420;50.876;7.012;2023-01-10T15:14:02;7.50;99.90
18581;DHT22;9420;50.876;7.012;2023-01-10T15:16:35;7.50;99.90
18581;DHT22;9420;50.876;7.012;2023-01-10T15:19:03;7.50;99.90
18581;DHT22;9420;50.876;7.012;2023-01-10T15:21:31;7.50;99.90
18581;DHT22;9420;50.876;7.012;2023-01-10T15:23:58;7.50;99.90
18581;DHT22;9420;50.876;7.012;2023-01-10T15:26:27;7.50;99.90
18581;DHT22;9420;50.876;7.012;2023-01-10T15:29:08;7.50;99.90
18581;DHT22;9420;50.876;7.012;2023-01-10T15:31:38;7.50;99.90
18581;DHT22;9420;50.876;7.012;2023-01-10T15:34:08;7.50;99.90
18581;DHT22;9420;50.876;7.012;2023-01-10T15:36:43;7.50;99.90
18581;DHT22;9420;50.876;7.012;2023-01-10T15:39:20;7.50;99.90
18581;DHT22;9420;50.876;7.012;2023-01-10T15:41:54;7.50;99.90
18581;DHT22;9420;50.876;7.012;2023-01-10T15:44:34;7.50;99.90
18581;DHT22;9420;50.876;7.012;2023-01-10T15:47:04;7.50;99.90
18581;DHT22;9420;50.876;7.012;2023-01-10T15:49:33;7.60;99.90
18581;DHT22;9420;50.876;7.012;2023-01-10T15:52:00;7.60;99.90
18581;DHT22;9420;50.876;7.012;2023-01-10T15:54:31;7.50;99.90
18581;DHT22;9420;50.876;7.012;2023-01-10T15:57:06;7.50;99.90
18581;DHT22;9420;50.876;7.012;2023-01-10T15:59:48;7.50;99.90
18581;DHT22;9420;50.876;7.012;2023-01-10T16:02:21;7.50;99.90
18581;DHT22;9420;50.876;7.012;2023-01-10T16:04:54;7.40;99.90
18581;DHT22;9420;50.876;7.012;2023-01-10T16:07:25;7.30;99.90
18581;DHT22;9420;50.876;7.012;2023-01-10T16:09:57;7.20;99.90
18581;DHT22;9420;50.876;7.012;2023-01-10T16:12:34;7.20;99.90
18581;DHT22;9420;50.876;7.012;2023-01-10T16:15:22;7.10;99.90
18581;DHT22;9420;50.876;7.012;2023-01-10T16:17:51;7.00;99.90
18581;DHT22;9420;50.876;7.012;2023-01-10T16:20:20;6.80;99.90
18581;DHT22;9420;50.876;7.012;2023-01-10T16:22:51;6.70;99.90
18581;DHT22;9420;50.876;7.012;2023-01-10T16:25:34;6.70;99.90
18581;DHT22;9420;50.876;7.012;2023-01-10T16:28:04;6.60;99.90
18581;DHT22;9420;50.876;7.012;2023-01-10T16:30:33;6.60;99.90
18581;DHT22;9420;50.876;7.012;2023-01-10T16:33:10;6.60;99.90
18581;DHT22;9420;50.876;7.012;2023-01-10T16:35:40;6.50;99.90
18581;DHT22;9420;50.876;7.012;2023-01-10T16:38:09;6.40;99.90
18581;DHT22;9420;50.876;7.012;2023-01-10T16:40:39;6.40;99.90
18581;DHT22;9420;50.876;7.012;2023-01-10T16:43:10;6.40;99.90
18581;DHT22;9420;50.876;7.012;2023-01-10T16:45:43;6.40;99.90
18581;DHT22;9420;50.876;7.012;2023-01-10T16:48:11;6.40;99.90
18581;DHT22;9420;50.876;7.012;2023-01-10T16:50:39;6.40;99.90
18581;DHT22;9420;50.876;7.012;2023-01-10T16:53:08;6.40;99.90